Terminal Aerodrome Forecast
Issued by NWS Portland, OR

Home | Current Version | Previous Version | Text Only | Print | Product List | Glossary On
Versions: 1 2 3 4 5 6 7 8 9 10 11 12 13 14 15
000
FTUS46 KPQR 300524
TAFAST
TAF
KAST 300524Z 3006/0106 32012G20KT P6SM OVC030
     FM300800 32008KT P6SM OVC030
     FM302000 32012KT P6SM SCT030
     FM010300 33006KT P6SM SCT030=

USA.gov is the U.S. government's official web portal to all federal, state and local government web resources and services.